Time;durP1;ratioP1;P1;durP2;ratioP2;P2;SDS_P1;SDS_P2;PMS_P1;PMS_P2;Temp;Humidity;BMP_temperature;BMP_pressure;BME280_temperature;BME280_humidity;BME280_pressure;Samples;Min_cycle;Max_cycle;Signal;HPM_P1;HPM_P2
2022/11/27 00:01:29;;;;;;;;;;;6.40;99.90;;;;;;5133168;27;20128;-49
2022/11/27 00:03:56;;;;;;;19.02;6.20;;;6.50;99.90;;;;;;5133055;27;19919;-47
2022/11/27 00:06:24;;;;;;;20.10;6.45;;;6.30;99.90;;;;;;5132909;27;20039;-49
2022/11/27 00:08:50;;;;;;;19.75;6.82;;;6.20;99.90;;;;;;5132543;27;20478;-47
2022/11/27 00:11:19;;;;;;;17.88;6.55;;;6.20;99.90;;;;;;5133151;27;20109;-48
2022/11/27 00:13:45;;;;;;;21.63;6.35;;;6.50;99.90;;;;;;5133083;27;20027;-49
2022/11/27 00:16:12;;;;;;;17.40;6.63;;;6.60;99.90;;;;;;5133080;27;20155;-48
2022/11/27 00:18:38;;;;;;;16.48;6.40;;;6.10;99.90;;;;;;5133057;27;20468;-47
2022/11/27 00:21:06;;;;;;;20.27;6.95;;;6.30;99.90;;;;;;5132882;27;20066;-48
2022/11/27 00:23:32;;;;;;;20.48;6.20;;;6.40;99.90;;;;;;5131480;27;20043;-49
2022/11/27 00:25:58;;;;;;;21.05;7.28;;;6.20;99.90;;;;;;5132655;27;20031;-47
2022/11/27 00:28:24;;;;;;;17.48;6.30;;;6.30;99.90;;;;;;5132197;27;20047;-50
2022/11/27 00:30:50;;;;;;;20.10;7.07;;;6.10;99.90;;;;;;5132463;27;20427;-46
2022/11/27 00:33:16;;;;;;;21.92;7.00;;;6.10;99.90;;;;;;5113880;27;20038;-47
2022/11/27 00:35:41;;;;;;;18.73;6.47;;;6.20;99.90;;;;;;5132551;27;20035;-48
2022/11/27 00:38:07;;;;;;;18.17;6.20;;;6.20;99.90;;;;;;5132612;27;20393;-49
2022/11/27 00:40:34;;;;;;;18.83;6.88;;;6.10;99.90;;;;;;5132175;27;20039;-46
2022/11/27 00:43:00;;;;;;;18.75;7.00;;;6.20;99.90;;;;;;5096853;27;20474;-49
2022/11/27 00:45:26;;;;;;;17.67;6.22;;;6.00;99.90;;;;;;5132650;27;20042;-49
2022/11/27 00:47:52;;;;;;;19.35;6.78;;;6.10;99.90;;;;;;5132345;27;20085;-50
2022/11/27 00:50:18;;;;;;;21.17;7.43;;;6.10;99.90;;;;;;5132496;27;20031;-47
2022/11/27 00:52:44;;;;;;;17.08;6.80;;;5.70;99.90;;;;;;5113884;27;20038;-48
2022/11/27 00:55:11;;;;;;;17.88;6.72;;;6.10;99.90;;;;;;5132237;27;20530;-48
2022/11/27 00:57:36;;;;;;;18.55;6.90;;;5.80;99.90;;;;;;5132155;27;20410;-46
2022/11/27 01:00:04;;;;;;;22.23;7.03;;;5.90;99.90;;;;;;5113516;27;20038;-48
2022/11/27 01:02:29;;;;;;;17.10;6.25;;;6.10;99.90;;;;;;5112986;27;20394;-49
2022/11/27 01:04:55;;;;;;;19.48;6.57;;;5.90;99.90;;;;;;5131811;27;20054;-50
2022/11/27 01:07:21;;;;;;;19.45;6.88;;;5.70;99.90;;;;;;5131897;27;20039;-48
2022/11/27 01:09:46;;;;;;;21.25;6.72;;;5.70;99.90;;;;;;5130200;27;20035;-50
2022/11/27 01:12:12;;;;;;;16.77;6.60;;;5.60;99.90;;;;;;5131490;27;20398;-45
2022/11/27 01:14:38;;;;;;;18.63;6.45;;;5.70;99.90;;;;;;5131793;27;20035;-50
2022/11/27 01:17:04;;;;;;;13.45;6.63;;;5.70;99.90;;;;;;5113046;27;20042;-46
2022/11/27 01:19:29;;;;;;;17.15;6.28;;;5.60;99.90;;;;;;5130627;27;20023;-50
2022/11/27 01:21:55;;;;;;;17.27;6.60;;;5.30;99.90;;;;;;5132035;27;20035;-48
2022/11/27 01:24:21;;;;;;;21.02;6.97;;;5.80;99.90;;;;;;5113457;27;20070;-48
2022/11/27 01:26:46;;;;;;;18.52;6.47;;;5.90;99.90;;;;;;5131225;27;20059;-49
2022/11/27 01:29:12;;;;;;;16.60;6.50;;;5.60;99.90;;;;;;5131459;27;20051;-48
2022/11/27 01:31:38;;;;;;;15.65;6.55;;;5.60;99.90;;;;;;5113018;27;20070;-47
2022/11/27 01:34:07;;;;;;;18.35;6.95;;;5.50;99.90;;;;;;5131535;27;20126;-46
2022/11/27 01:36:34;;;;;;;16.35;6.30;;;5.70;99.90;;;;;;5131392;27;20047;-47
2022/11/27 01:39:00;;;;;;;21.75;6.45;;;5.70;99.90;;;;;;5129846;27;20121;-45
2022/11/27 01:41:32;;;;;;;20.25;7.03;;;5.50;99.90;;;;;;5113127;27;20042;-47
2022/11/27 01:44:23;;;;;;;21.00;6.88;;;5.70;99.90;;;;;;5130088;27;20038;-46
2022/11/27 01:46:57;;;;;;;18.20;6.35;;;5.50;99.90;;;;;;5130717;27;20060;-48
2022/11/27 01:49:32;;;;;;;17.70;6.38;;;5.70;99.90;;;;;;5131124;27;20412;-47
2022/11/27 01:52:12;;;;;;;15.75;6.43;;;5.50;99.90;;;;;;5131055;27;20389;-47
2022/11/27 01:54:44;;;;;;;17.13;6.30;;;5.50;99.90;;;;;;5130863;27;20042;-49
2022/11/27 01:57:27;;;;;;;19.55;6.43;;;5.40;99.90;;;;;;5130947;27;20374;-49
2022/11/27 01:59:55;;;;;;;13.65;6.03;;;5.20;99.90;;;;;;5112316;27;20114;-50
2022/11/27 02:02:21;;;;;;;16.15;6.40;;;5.50;99.90;;;;;;5130655;27;20031;-49
2022/11/27 02:04:47;;;;;;;16.60;6.47;;;5.30;99.90;;;;;;5130787;27;20027;-48
2022/11/27 02:07:12;;;;;;;20.10;7.07;;;5.40;99.90;;;;;;5111832;27;20038;-46
2022/11/27 02:09:39;;;;;;;18.63;6.88;;;5.60;99.90;;;;;;5130125;27;20495;-47
2022/11/27 02:12:13;;;;;;;14.45;6.53;;;5.40;99.90;;;;;;5130664;27;20035;-48
2022/11/27 02:14:48;;;;;;;18.50;6.70;;;5.10;99.90;;;;;;5130615;27;20119;-49
2022/11/27 02:17:34;;;;;;;22.50;7.10;;;5.60;99.90;;;;;;5112081;27;20035;-50
2022/11/27 02:20:29;;;;;;;20.63;6.68;;;5.70;99.90;;;;;;5124571;27;20078;-48
2022/11/27 02:22:54;;;;;;;;;;;5.60;99.90;;;;;;5127029;27;20039;-48
2022/11/27 02:25:57;;;;;;;18.83;6.50;;;5.30;99.90;;;;;;5125431;27;19919;-48
2022/11/27 02:28:49;;;;;;;15.70;6.77;;;5.40;99.90;;;;;;5103343;27;20050;-46
2022/11/27 02:31:21;;;;;;;18.23;7.55;;;5.20;99.90;;;;;;5130126;27;20276;-46
2022/11/27 02:33:52;;;;;;;18.52;7.47;;;5.50;99.90;;;;;;5130388;27;20035;-48
2022/11/27 02:36:23;;;;;;;16.35;7.35;;;5.30;99.90;;;;;;5130366;27;20099;-50
2022/11/27 02:39:03;;;;;;;24.52;8.27;;;5.20;99.90;;;;;;5111341;28;20520;-48
2022/11/27 02:41:35;;;;;;;16.33;7.18;;;5.40;99.90;;;;;;5130327;28;20068;-47
2022/11/27 02:44:03;;;;;;;17.35;7.78;;;5.30;99.90;;;;;;5130207;28;20501;-47
2022/11/27 02:46:29;;;;;;;18.50;7.18;;;5.40;99.90;;;;;;5111986;28;20043;-48
2022/11/27 02:48:58;;;;;;;18.70;7.93;;;5.40;99.90;;;;;;5111793;28;20385;-45
2022/11/27 02:51:48;;;;;;;18.23;7.45;;;5.10;99.90;;;;;;5129905;28;20042;-47
2022/11/27 02:54:23;;;;;;;22.65;8.10;;;5.20;99.90;;;;;;5130063;28;20388;-46
2022/11/27 02:56:50;;;;;;;15.77;7.78;;;5.30;99.90;;;;;;5129690;28;20035;-47
2022/11/27 02:59:17;;;;;;;19.50;8.00;;;5.40;99.90;;;;;;5130267;28;20043;-50
2022/11/27 03:01:54;;;;;;;21.52;8.43;;;5.00;99.90;;;;;;5111518;28;20047;-47
2022/11/27 03:04:25;;;;;;;16.25;7.70;;;5.00;99.90;;;;;;5130562;28;20390;-48
2022/11/27 03:06:54;;;;;;;19.23;7.55;;;5.20;99.90;;;;;;5130024;28;20072;-48
2022/11/27 03:09:41;;;;;;;20.48;7.90;;;5.30;99.90;;;;;;5129783;28;20035;-47
2022/11/27 03:12:08;;;;;;;22.17;7.70;;;5.10;99.90;;;;;;5130084;28;20031;-46
2022/11/27 03:14:36;;;;;;;18.77;7.05;;;5.30;99.90;;;;;;5130268;28;20487;-46
2022/11/27 03:17:39;;;;;;;21.45;7.78;;;5.30;99.90;;;;;;5130040;28;20039;-46
2022/11/27 03:20:16;;;;;;;16.25;7.18;;;5.30;99.90;;;;;;5110389;27;20049;-46
2022/11/27 03:22:42;;;;;;;16.13;7.03;;;5.50;99.90;;;;;;5133372;27;20108;-46
2022/11/27 03:25:08;;;;;;;16.52;7.03;;;5.60;99.90;;;;;;5115358;27;20045;-47
2022/11/27 03:28:00;;;;;;;19.10;7.10;;;5.20;99.90;;;;;;5133697;27;20490;-46
2022/11/27 03:30:26;;;;;;;22.05;7.15;;;5.20;99.90;;;;;;5119686;27;20054;-46
2022/11/27 03:32:52;;;;;;;18.48;6.30;;;5.40;99.90;;;;;;5133737;27;20844;-47
2022/11/27 03:35:24;;;;;;;23.33;7.47;;;5.30;99.90;;;;;;5133866;27;20030;-45
2022/11/27 03:37:50;;;;;;;21.73;6.60;;;5.50;99.90;;;;;;5115200;27;20435;-46
2022/11/27 03:40:17;;;;;;;19.35;7.22;;;5.50;99.90;;;;;;5133652;27;20083;-47
2022/11/27 03:43:05;;;;;;;19.30;6.15;;;5.60;99.90;;;;;;5133643;27;20375;-48
2022/11/27 03:46:07;;;;;;;15.20;6.90;;;5.30;99.90;;;;;;5133138;27;20036;-44
2022/11/27 03:48:45;;;;;;;15.35;6.13;;;5.50;99.90;;;;;;5133327;27;20034;-51
2022/11/27 03:51:21;;;;;;;14.57;6.40;;;5.60;99.90;;;;;;5130678;27;20027;-47
2022/11/27 03:54:25;;;;;;;15.93;6.30;;;5.60;99.90;;;;;;5133237;27;20043;-48
2022/11/27 03:56:59;;;;;;;18.30;6.47;;;5.50;99.90;;;;;;5133500;27;20051;-50
2022/11/27 03:59:33;;;;;;;20.60;6.38;;;5.50;99.90;;;;;;5133334;27;20043;-48
2022/11/27 04:01:58;;;;;;;19.13;6.53;;;5.50;99.90;;;;;;5133285;27;21273;-46
2022/11/27 04:04:24;;;;;;;18.02;5.90;;;5.50;99.90;;;;;;5114632;27;20482;-47
2022/11/27 04:06:50;;;;;;;18.63;6.18;;;5.70;99.90;;;;;;5114584;27;20031;-49
2022/11/27 04:09:15;;;;;;;18.70;5.97;;;5.90;99.90;;;;;;5132671;27;20398;-50
2022/11/27 04:11:41;;;;;;;14.95;5.50;;;5.70;99.90;;;;;;5132973;27;20053;-49
2022/11/27 04:14:07;;;;;;;18.70;6.07;;;5.60;99.90;;;;;;5132872;27;20054;-47
2022/11/27 04:16:32;;;;;;;19.83;6.28;;;5.70;99.90;;;;;;5113111;27;20490;-49
2022/11/27 04:18:58;;;;;;;15.85;6.65;;;5.70;99.90;;;;;;5133133;27;20054;-47
2022/11/27 04:21:24;;;;;;;16.40;5.85;;;5.90;99.90;;;;;;5132704;27;20056;-47
2022/11/27 04:23:50;;;;;;;14.50;5.07;;;5.80;99.90;;;;;;5114649;27;20050;-47
2022/11/27 04:26:15;;;;;;;17.25;5.68;;;5.70;99.90;;;;;;5114544;27;20047;-46
2022/11/27 04:28:41;;;;;;;17.02;5.43;;;5.80;99.90;;;;;;5132274;27;20043;-46
2022/11/27 04:31:07;;;;;;;12.43;5.07;;;5.40;99.90;;;;;;5131991;27;20043;-46
2022/11/27 04:33:33;;;;;;;15.35;5.68;;;5.70;99.90;;;;;;5132512;27;20513;-46
2022/11/27 04:35:58;;;;;;;14.55;5.25;;;5.60;99.90;;;;;;5132689;27;20118;-45
2022/11/27 04:38:27;;;;;;;14.10;4.90;;;5.70;99.90;;;;;;5114023;27;20039;-46
2022/11/27 04:40:53;;;;;;;15.30;4.80;;;5.50;99.90;;;;;;5132180;27;20463;-46
2022/11/27 04:43:19;;;;;;;12.50;4.95;;;5.60;99.90;;;;;;5113748;27;20100;-45
2022/11/27 04:45:45;;;;;;;14.45;5.32;;;5.70;99.90;;;;;;5131360;27;20469;-47
2022/11/27 04:48:11;;;;;;;14.73;5.05;;;5.60;99.90;;;;;;5114424;27;20034;-45
2022/11/27 04:50:36;;;;;;;13.18;5.45;;;5.70;99.90;;;;;;5113517;27;20129;-49
2022/11/27 04:53:02;;;;;;;16.95;5.63;;;5.50;99.90;;;;;;5132176;27;20031;-46
2022/11/27 04:55:28;;;;;;;14.80;4.90;;;5.70;99.90;;;;;;5132275;27;20031;-46
2022/11/27 04:57:53;;;;;;;15.98;5.22;;;5.70;99.90;;;;;;5132053;27;20042;-46
2022/11/27 05:00:20;;;;;;;13.68;4.88;;;5.70;99.90;;;;;;5132565;27;20470;-50
2022/11/27 05:02:46;;;;;;;18.00;5.43;;;5.50;99.90;;;;;;5114328;27;20074;-47
2022/11/27 05:05:11;;;;;;;17.15;6.03;;;6.00;99.90;;;;;;5132264;27;20039;-47
2022/11/27 05:07:37;;;;;;;16.42;5.32;;;5.60;99.90;;;;;;5113682;27;20453;-49
2022/11/27 05:10:04;;;;;;;16.42;5.32;;;5.50;99.90;;;;;;5113099;27;20031;-45
2022/11/27 05:12:30;;;;;;;18.73;5.15;;;5.60;99.90;;;;;;5131687;27;20498;-46
2022/11/27 05:14:56;;;;;;;12.10;4.93;;;5.60;99.90;;;;;;5096376;27;20039;-50
2022/11/27 05:17:22;;;;;;;10.80;4.47;;;5.70;99.90;;;;;;5131782;27;20031;-48
2022/11/27 05:19:48;;;;;;;12.65;4.97;;;5.50;99.90;;;;;;5131678;27;20035;-48
2022/11/27 05:22:13;;;;;;;15.00;5.88;;;5.50;99.90;;;;;;5131752;27;20056;-51
2022/11/27 05:24:39;;;;;;;12.10;4.93;;;5.70;99.90;;;;;;5131109;27;20058;-50
2022/11/27 05:27:05;;;;;;;13.27;5.25;;;5.70;99.90;;;;;;5113078;27;20126;-48
2022/11/27 05:29:30;;;;;;;15.23;5.00;;;5.60;99.90;;;;;;5131753;27;20497;-46
2022/11/27 05:31:57;;;;;;;15.05;5.10;;;5.60;99.90;;;;;;5131325;27;20035;-48
2022/11/27 05:34:22;;;;;;;13.13;5.00;;;5.50;99.90;;;;;;5131085;27;20039;-46
2022/11/27 05:36:48;;;;;;;10.52;4.80;;;5.70;99.90;;;;;;5131029;27;20035;-46
2022/11/27 05:39:14;;;;;;;16.17;5.13;;;5.70;99.90;;;;;;5130839;27;20060;-45
2022/11/27 05:41:42;;;;;;;11.35;4.57;;;5.70;99.90;;;;;;5130682;27;20078;-46
2022/11/27 05:44:13;;;;;;;11.05;4.22;;;5.60;99.90;;;;;;5130923;27;20545;-47
2022/11/27 05:46:39;;;;;;;13.07;4.65;;;5.60;99.90;;;;;;5131032;27;20088;-46
2022/11/27 05:49:05;;;;;;;14.00;4.35;;;5.60;99.90;;;;;;5129737;27;20053;-48
2022/11/27 05:51:31;;;;;;;11.88;4.85;;;6.00;99.90;;;;;;5131128;27;20031;-47
2022/11/27 05:53:56;;;;;;;14.57;5.10;;;5.60;99.90;;;;;;5131138;27;20538;-46
2022/11/27 05:56:22;;;;;;;14.38;5.00;;;5.90;99.90;;;;;;5130385;27;20096;-47
2022/11/27 05:58:48;;;;;;;12.57;4.80;;;5.70;99.90;;;;;;5130431;27;20088;-46
2022/11/27 06:01:16;;;;;;;9.45;4.45;;;5.50;99.90;;;;;;5112500;27;20034;-49
2022/11/27 06:03:41;;;;;;;16.23;5.30;;;5.40;99.90;;;;;;5130922;27;20043;-48
2022/11/27 06:06:14;;;;;;;15.45;4.82;;;5.60;99.90;;;;;;5130987;27;20055;-48
2022/11/27 06:08:40;;;;;;;14.20;4.70;;;5.70;99.90;;;;;;5111530;27;20031;-47
2022/11/27 06:11:12;;;;;;;12.38;4.40;;;5.70;99.90;;;;;;5129273;27;20064;-51
2022/11/27 06:13:37;;;;;;;13.57;4.95;;;5.70;99.90;;;;;;5130477;27;20058;-46
2022/11/27 06:16:09;;;;;;;12.35;4.70;;;6.00;99.90;;;;;;5130323;27;20026;-47
2022/11/27 06:18:35;;;;;;;16.05;4.97;;;5.70;99.90;;;;;;5130552;27;20114;-50
2022/11/27 06:21:05;;;;;;;11.55;4.30;;;5.70;99.90;;;;;;5130569;27;20122;-46
2022/11/27 06:23:30;;;;;;;17.98;4.70;;;5.70;99.90;;;;;;5095174;27;20130;-48
2022/11/27 06:25:56;;;;;;;14.07;4.80;;;5.70;99.90;;;;;;5128753;27;20122;-48
2022/11/27 06:28:22;;;;;;;11.35;4.55;;;5.70;99.90;;;;;;5111890;27;20038;-49
2022/11/27 06:30:47;;;;;;;14.68;4.72;;;5.70;99.90;;;;;;5130180;27;20039;-46
2022/11/27 06:33:13;;;;;;;15.00;5.28;;;5.80;99.90;;;;;;5130181;27;20048;-49
2022/11/27 06:35:39;;;;;;;10.98;4.95;;;5.70;99.90;;;;;;5130282;27;20513;-48
2022/11/27 06:38:04;;;;;;;16.55;5.22;;;5.60;99.90;;;;;;5130255;27;20070;-46
2022/11/27 06:40:30;;;;;;;14.25;5.72;;;5.80;99.90;;;;;;5129954;27;20039;-50
2022/11/27 06:42:56;;;;;;;15.48;5.07;;;5.80;99.90;;;;;;5130395;27;20497;-47
2022/11/27 06:45:22;;;;;;;19.98;5.25;;;5.80;99.90;;;;;;5130020;28;20390;-47
2022/11/27 06:47:48;;;;;;;11.05;5.05;;;5.70;99.90;;;;;;5130413;28;20035;-47
2022/11/27 06:50:13;;;;;;;13.07;5.15;;;5.70;99.90;;;;;;5130172;28;20031;-46
2022/11/27 06:52:39;;;;;;;13.65;5.13;;;5.70;99.90;;;;;;5130354;27;20039;-48
2022/11/27 06:55:05;;;;;;;12.15;4.78;;;5.70;99.90;;;;;;5134943;27;20039;-47
2022/11/27 06:57:31;;;;;;;12.18;4.55;;;5.80;99.90;;;;;;5133598;27;20037;-48
2022/11/27 06:59:56;;;;;;;18.25;5.68;;;5.70;99.90;;;;;;5115783;27;20068;-48
2022/11/27 07:02:22;;;;;;;10.18;4.80;;;5.70;99.90;;;;;;5134347;27;20385;-47
2022/11/27 07:04:48;;;;;;;13.57;5.05;;;5.70;99.90;;;;;;5134569;27;20035;-47
2022/11/27 07:07:14;;;;;;;12.88;5.00;;;5.70;99.90;;;;;;5134029;27;20049;-47
2022/11/27 07:09:40;;;;;;;14.15;5.32;;;5.70;99.90;;;;;;5098668;27;20027;-46
2022/11/27 07:12:07;;;;;;;12.55;4.82;;;5.70;99.90;;;;;;5132891;27;20482;-47
2022/11/27 07:14:32;;;;;;;11.98;4.63;;;5.80;99.90;;;;;;5115568;27;20440;-48
2022/11/27 07:16:58;;;;;;;14.95;5.18;;;5.80;99.90;;;;;;5134197;27;20060;-48
2022/11/27 07:19:24;;;;;;;12.57;5.35;;;6.00;99.90;;;;;;5134018;27;20080;-47
2022/11/27 07:21:49;;;;;;;11.85;5.60;;;5.70;99.90;;;;;;5115805;27;20096;-47
2022/11/27 07:24:15;;;;;;;14.27;5.55;;;5.80;99.90;;;;;;5115170;27;20183;-49
2022/11/27 07:26:41;;;;;;;10.13;4.95;;;6.10;99.90;;;;;;5133636;27;20478;-47
2022/11/27 07:29:06;;;;;;;13.23;5.35;;;5.90;99.90;;;;;;5133623;27;20407;-47
2022/11/27 07:31:32;;;;;;;13.55;5.80;;;6.10;99.90;;;;;;5133620;27;20106;-50
2022/11/27 07:33:58;;;;;;;13.95;5.68;;;5.90;99.90;;;;;;5133956;27;20130;-50
2022/11/27 07:36:29;;;;;;;15.13;5.45;;;5.90;99.90;;;;;;5133887;27;20069;-46
2022/11/27 07:38:55;;;;;;;12.63;5.55;;;6.40;99.90;;;;;;5133598;27;20205;-47
2022/11/27 07:41:21;;;;;;;14.38;6.07;;;5.80;99.90;;;;;;5114585;27;20126;-48
2022/11/27 07:43:47;;;;;;;14.63;6.07;;;5.90;99.90;;;;;;5115268;27;20096;-46
2022/11/27 07:46:12;;;;;;;11.68;5.43;;;6.00;99.90;;;;;;5114955;27;20090;-48
2022/11/27 07:48:38;;;;;;;12.70;5.55;;;5.90;99.90;;;;;;5133578;27;20083;-45
2022/11/27 07:51:13;;;;;;;13.88;5.80;;;6.00;99.90;;;;;;5114728;27;20051;-47
2022/11/27 07:53:40;;;;;;;11.98;5.63;;;5.90;99.90;;;;;;5133266;27;20487;-46
2022/11/27 07:56:08;;;;;;;11.90;5.68;;;5.90;99.90;;;;;;5133121;27;20047;-47
2022/11/27 07:58:34;;;;;;;13.65;5.70;;;6.00;99.90;;;;;;5133483;27;20039;-46
2022/11/27 08:01:00;;;;;;;12.15;5.50;;;6.00;99.90;;;;;;5133519;27;20035;-47
2022/11/27 08:03:26;;;;;;;15.05;6.45;;;6.00;99.90;;;;;;5133832;27;20094;-48
2022/11/27 08:05:51;;;;;;;12.95;5.68;;;5.90;99.90;;;;;;5132125;27;20043;-46
2022/11/27 08:08:17;;;;;;;14.48;6.05;;;6.00;99.90;;;;;;5133220;27;20043;-46
2022/11/27 08:10:43;;;;;;;14.70;6.18;;;6.00;99.90;;;;;;5131474;27;20046;-47
2022/11/27 08:13:09;;;;;;;14.90;5.78;;;6.00;99.90;;;;;;5132687;27;20061;-49
2022/11/27 08:15:36;;;;;;;16.63;6.03;;;6.10;99.90;;;;;;5133431;27;20074;-46
2022/11/27 08:18:02;;;;;;;14.23;6.05;;;6.10;99.90;;;;;;5114896;27;20035;-48
2022/11/27 08:20:28;;;;;;;17.48;6.70;;;6.00;99.90;;;;;;5114924;27;20034;-47
2022/11/27 08:22:53;;;;;;;16.10;6.85;;;6.00;99.90;;;;;;5125653;27;20046;-50
2022/11/27 08:25:20;;;;;;;13.07;5.93;;;6.10;99.90;;;;;;5130809;27;20045;-48
2022/11/27 08:27:47;;;;;;;11.50;5.82;;;6.40;99.90;;;;;;5125876;27;20395;-47
2022/11/27 08:30:13;;;;;;;14.80;6.53;;;6.20;99.90;;;;;;5121464;27;20043;-46
2022/11/27 08:32:40;;;;;;;15.73;6.85;;;6.10;99.90;;;;;;5125120;27;20119;-46
2022/11/27 08:35:06;;;;;;;12.25;6.15;;;6.20;99.90;;;;;;5124143;27;20073;-47
2022/11/27 08:37:32;;;;;;;14.73;6.40;;;6.10;99.90;;;;;;5122480;27;20039;-47
2022/11/27 08:39:58;;;;;;;16.38;6.43;;;6.20;99.90;;;;;;5122060;27;20035;-46
2022/11/27 08:42:23;;;;;;;13.77;6.35;;;6.20;99.90;;;;;;5120250;27;20031;-47
2022/11/27 08:44:49;;;;;;;14.32;6.47;;;6.20;99.90;;;;;;5121250;27;20087;-46
2022/11/27 08:47:15;;;;;;;14.75;6.93;;;6.10;99.90;;;;;;5122131;27;21783;-47
2022/11/27 08:49:42;;;;;;;15.00;6.53;;;6.20;99.90;;;;;;5102023;27;20174;-48
2022/11/27 08:52:11;;;;;;;15.43;6.65;;;6.10;99.90;;;;;;5122405;27;20061;-47
2022/11/27 08:54:37;;;;;;;14.93;6.25;;;6.40;99.90;;;;;;5121887;27;20028;-46
2022/11/27 08:57:03;;;;;;;17.63;7.43;;;5.50;99.90;;;;;;5121171;27;20041;-50
2022/11/27 08:59:29;;;;;;;17.52;7.18;;;6.20;99.90;;;;;;5122565;27;20042;-47
2022/11/27 09:01:54;;;;;;;12.80;7.40;;;6.00;99.90;;;;;;5122040;27;20345;-47
2022/11/27 09:04:20;;;;;;;16.58;7.07;;;6.00;99.90;;;;;;5120376;27;20027;-45
2022/11/27 09:06:47;;;;;;;19.35;8.18;;;6.10;99.90;;;;;;5119984;27;20039;-46
2022/11/27 09:09:14;;;;;;;17.88;7.72;;;6.00;99.90;;;;;;5120944;27;20555;-46
2022/11/27 09:11:40;;;;;;;16.75;7.90;;;6.10;99.90;;;;;;5101551;27;20039;-48
2022/11/27 09:14:07;;;;;;;17.95;7.35;;;6.10;99.90;;;;;;5120396;27;20093;-46
2022/11/27 09:16:34;;;;;;;21.13;7.97;;;5.70;99.90;;;;;;5083459;27;20092;-47
2022/11/27 09:19:00;;;;;;;17.20;7.75;;;6.40;99.90;;;;;;5116701;27;20645;-47
2022/11/27 09:21:29;;;;;;;14.30;7.35;;;5.90;99.90;;;;;;5100478;27;20385;-47
2022/11/27 09:23:56;;;;;;;17.15;8.07;;;6.00;99.90;;;;;;5120357;27;20044;-49
2022/11/27 09:26:24;;;;;;;19.55;7.75;;;6.10;99.90;;;;;;5100803;27;20066;-48
2022/11/27 09:28:51;;;;;;;16.10;8.00;;;6.10;99.90;;;;;;5117495;27;20066;-51
2022/11/27 09:31:19;;;;;;;18.13;8.00;;;5.90;99.90;;;;;;5117564;27;20038;-49
2022/11/27 09:33:45;;;;;;;13.35;7.25;;;6.50;99.90;;;;;;5117950;27;20077;-49
2022/11/27 09:36:16;;;;;;;17.83;8.13;;;6.00;99.90;;;;;;5117527;27;20035;-46
2022/11/27 09:38:42;;;;;;;18.67;8.18;;;6.40;99.90;;;;;;5118124;27;20118;-47
2022/11/27 09:41:32;;;;;;;15.60;7.60;;;5.80;99.90;;;;;;5117389;27;20042;-46
2022/11/27 09:44:09;;;;;;;22.88;8.13;;;6.10;99.90;;;;;;5119799;27;20378;-50
2022/11/27 09:46:38;;;;;;;17.88;7.85;;;6.10;99.90;;;;;;5117211;27;20114;-49
2022/11/27 09:49:08;;;;;;;17.83;8.02;;;6.10;99.90;;;;;;5118679;27;20039;-46
2022/11/27 09:51:41;;;;;;;14.55;7.70;;;6.00;99.90;;;;;;5118206;27;20043;-48
2022/11/27 09:54:34;;;;;;;18.50;8.80;;;6.00;99.90;;;;;;5117938;27;20061;-50
2022/11/27 09:57:02;;;;;;;17.00;8.40;;;6.20;99.90;;;;;;5119166;27;20529;-49
2022/11/27 09:59:40;;;;;;;18.50;8.98;;;5.90;99.90;;;;;;5117390;27;20032;-46
2022/11/27 10:02:17;;;;;;;16.83;8.98;;;5.80;99.90;;;;;;5114749;27;20062;-46
2022/11/27 10:04:43;;;;;;;17.85;8.82;;;6.10;99.90;;;;;;5116340;27;20152;-47
2022/11/27 10:07:24;;;;;;;20.88;8.60;;;6.10;99.90;;;;;;5117942;27;20074;-47
2022/11/27 10:10:01;;;;;;;23.17;8.90;;;6.10;99.90;;;;;;5117727;27;20035;-46
2022/11/27 10:12:48;;;;;;;18.15;9.35;;;6.10;99.90;;;;;;5116209;27;20039;-47
2022/11/27 10:15:20;;;;;;;21.98;8.50;;;6.20;99.90;;;;;;5118140;27;20070;-48
2022/11/27 10:17:55;;;;;;;17.55;7.95;;;6.00;99.90;;;;;;5118148;27;20122;-46
2022/11/27 10:20:54;;;;;;;20.38;10.30;;;6.10;99.90;;;;;;5117212;27;20063;-47
2022/11/27 10:23:34;;;;;;;19.33;8.20;;;6.00;99.90;;;;;;5107384;27;20051;-49
2022/11/27 10:26:06;;;;;;;16.10;8.25;;;6.10;99.90;;;;;;5119138;27;20032;-46
2022/11/27 10:28:47;;;;;;;18.83;8.80;;;6.30;99.90;;;;;;5117294;27;20047;-46
2022/11/27 10:31:39;;;;;;;19.23;8.30;;;6.20;99.90;;;;;;5115874;27;20051;-49
2022/11/27 10:34:42;;;;;;;18.38;8.35;;;6.10;99.90;;;;;;5105961;27;20039;-48
2022/11/27 10:37:24;;;;;;;18.58;8.13;;;6.10;99.90;;;;;;5064372;27;20071;-48
2022/11/27 10:39:57;;;;;;;18.73;8.27;;;6.70;99.90;;;;;;5114746;27;20066;-48
2022/11/27 10:42:47;;;;;;;16.63;9.02;;;6.30;99.90;;;;;;5112251;27;20085;-48
2022/11/27 10:45:43;;;;;;;17.92;9.15;;;6.20;99.90;;;;;;5060287;28;20896;-49
2022/11/27 10:48:09;;;;;;;16.15;8.40;;;6.10;99.90;;;;;;5123840;28;20035;-46
2022/11/27 10:50:35;;;;;;;22.30;9.48;;;6.40;99.90;;;;;;5107358;28;20039;-46
2022/11/27 10:53:06;;;;;;;19.90;9.85;;;6.20;99.90;;;;;;5125587;28;20023;-47
2022/11/27 10:55:50;;;;;;;20.17;9.50;;;6.20;99.90;;;;;;5125271;28;20043;-46
2022/11/27 10:58:19;;;;;;;;;;;6.10;99.90;;;;;;5125542;28;20446;-47
2022/11/27 11:00:46;;;;;;;18.65;8.07;;;6.20;99.90;;;;;;5127414;28;19916;-46
2022/11/27 11:03:17;;;;;;;20.92;9.18;;;6.30;99.90;;;;;;5125827;28;20031;-47
2022/11/27 11:05:56;;;;;;;16.85;8.25;;;6.40;99.90;;;;;;5122353;28;20665;-46
2022/11/27 11:08:24;;;;;;;17.73;9.02;;;6.40;99.90;;;;;;5124736;28;20065;-47
2022/11/27 11:10:52;;;;;;;19.08;8.77;;;6.60;99.90;;;;;;5107786;28;20546;-45
2022/11/27 11:13:26;;;;;;;15.98;8.35;;;6.50;99.90;;;;;;5126144;28;20031;-46
2022/11/27 11:15:56;;;;;;;15.05;8.05;;;6.20;99.90;;;;;;5122360;28;20040;-46
2022/11/27 11:18:28;;;;;;;19.25;9.18;;;6.40;99.90;;;;;;5124289;28;20390;-47
2022/11/27 11:21:00;;;;;;;20.73;8.80;;;6.30;99.90;;;;;;5126652;28;20057;-47
2022/11/27 11:23:29;;;;;;;18.58;9.05;;;6.40;99.90;;;;;;5124819;28;20031;-46
2022/11/27 11:26:03;;;;;;;17.42;9.73;;;6.50;99.90;;;;;;5123957;28;20051;-50
2022/11/27 11:28:30;;;;;;;18.42;9.48;;;6.30;99.90;;;;;;5122958;28;20051;-46
2022/11/27 11:31:08;;;;;;;17.17;9.10;;;6.40;99.90;;;;;;5126378;28;20040;-47
2022/11/27 11:33:47;;;;;;;20.67;10.05;;;6.50;99.90;;;;;;5122069;28;20039;-46
2022/11/27 11:36:14;;;;;;;18.83;10.15;;;6.20;99.90;;;;;;5121717;28;20403;-47
2022/11/27 11:38:44;;;;;;;17.30;9.80;;;6.30;99.90;;;;;;5102025;28;20054;-45
2022/11/27 11:41:11;;;;;;;20.75;9.95;;;6.30;99.90;;;;;;5125221;27;20050;-46
2022/11/27 11:43:38;;;;;;;20.67;10.20;;;6.50;99.90;;;;;;5124032;27;20100;-46
2022/11/27 11:46:21;;;;;;;21.80;11.02;;;6.50;99.90;;;;;;5128049;27;20428;-48
2022/11/27 11:49:22;;;;;;;20.88;9.73;;;6.20;99.90;;;;;;5126164;27;20339;-49
2022/11/27 11:52:22;;;;;;;24.70;10.93;;;6.30;99.90;;;;;;5100043;27;20035;-49
2022/11/27 11:55:07;;;;;;;25.95;11.10;;;6.30;99.90;;;;;;5111341;27;20513;-46
2022/11/27 11:57:35;;;;;;;31.23;13.25;;;6.30;99.90;;;;;;5123068;27;20402;-51
2022/11/27 12:00:11;;;;;;;20.52;11.55;;;6.50;99.90;;;;;;5124638;27;20039;-46
2022/11/27 12:02:49;;;;;;;17.67;9.77;;;6.20;99.90;;;;;;5125349;27;20039;-50
2022/11/27 12:05:39;;;;;;;18.88;10.30;;;6.60;99.90;;;;;;5126179;27;20046;-50
2022/11/27 12:08:29;;;;;;;18.40;10.30;;;6.60;99.90;;;;;;5124836;27;20486;-48
2022/11/27 12:10:58;;;;;;;17.85;9.57;;;6.50;99.90;;;;;;5124736;27;20059;-47
2022/11/27 12:13:57;;;;;;;19.83;9.32;;;6.50;99.90;;;;;;5129321;27;20122;-48
2022/11/27 12:16:49;;;;;;;20.20;9.13;;;6.40;99.90;;;;;;5125391;27;20081;-48
2022/11/27 12:19:37;;;;;;;15.93;9.45;;;6.60;99.90;;;;;;5126626;27;20127;-46
2022/11/27 12:22:26;;;;;;;19.00;8.93;;;6.40;99.90;;;;;;5127099;27;20057;-47
2022/11/27 12:25:20;;;;;;;19.98;8.85;;;6.40;99.90;;;;;;5070325;27;20379;-48
2022/11/27 12:28:33;;;;;;;15.57;8.73;;;6.70;99.90;;;;;;5128743;27;20081;-49
2022/11/27 12:31:32;;;;;;;17.42;9.27;;;6.40;99.90;;;;;;5048183;28;20059;-46
2022/11/27 12:34:04;;;;;;;18.20;9.07;;;6.70;99.90;;;;;;5047189;28;20037;-50
2022/11/27 12:36:49;;;;;;;20.00;9.63;;;6.70;99.90;;;;;;5110187;27;20047;-47
2022/11/27 12:39:26;;;;;;;17.33;9.52;;;6.40;99.90;;;;;;5110971;27;20035;-48
2022/11/27 12:42:14;;;;;;;19.30;9.10;;;6.60;99.90;;;;;;5127868;27;20470;-46
2022/11/27 12:44:53;;;;;;;21.95;9.60;;;6.70;99.90;;;;;;5125166;27;20442;-47
2022/11/27 12:47:25;;;;;;;30.88;14.48;;;6.40;99.90;;;;;;5126187;27;20031;-46
2022/11/27 12:49:56;;;;;;;23.75;11.30;;;6.70;99.90;;;;;;5127006;27;20074;-48
2022/11/27 12:52:31;;;;;;;22.50;11.73;;;6.70;99.90;;;;;;5123171;27;20050;-46
2022/11/27 12:55:14;;;;;;;25.05;12.98;;;6.60;99.90;;;;;;5127031;27;20070;-50
2022/11/27 12:57:46;;;;;;;30.95;16.15;;;6.60;99.90;;;;;;5126364;27;20482;-47
2022/11/27 13:00:23;;;;;;;24.05;13.50;;;6.60;99.90;;;;;;5123628;27;20043;-50
2022/11/27 13:03:06;;;;;;;22.00;12.93;;;6.70;99.90;;;;;;5121329;27;20049;-48
2022/11/27 13:05:42;;;;;;;19.80;10.98;;;6.50;99.90;;;;;;5126908;27;20054;-48
2022/11/27 13:08:11;;;;;;;18.25;9.77;;;6.50;99.90;;;;;;5126106;27;20051;-46